sensor_id;sensor_type;location;lat;lon;timestamp;temperature;humidity
73780;SHT30;62093;37.614;15.072;2023-12-14T00:01:24;18.03;60.21
73780;SHT30;62093;37.614;15.072;2023-12-14T00:03:50;18.02;60.25
73780;SHT30;62093;37.614;15.072;2023-12-14T00:06:16;18.02;60.26
73780;SHT30;62093;37.614;15.072;2023-12-14T00:08:42;18.02;60.20
73780;SHT30;62093;37.614;15.072;2023-12-14T00:11:10;18.02;60.25
73780;SHT30;62093;37.614;15.072;2023-12-14T00:13:37;17.99;60.43
73780;SHT30;62093;37.614;15.072;2023-12-14T00:16:04;17.99;60.17
73780;SHT30;62093;37.614;15.072;2023-12-14T00:18:30;17.97;60.30
73780;SHT30;62093;37.614;15.072;2023-12-14T00:20:56;17.96;60.30
73780;SHT30;62093;37.614;15.072;2023-12-14T00:23:22;17.96;60.36
73780;SHT30;62093;37.614;15.072;2023-12-14T00:25:49;17.95;60.42
73780;SHT30;62093;37.614;15.072;2023-12-14T00:28:15;17.95;60.28
73780;SHT30;62093;37.614;15.072;2023-12-14T00:30:41;17.93;60.26
73780;SHT30;62093;37.614;15.072;2023-12-14T00:33:06;17.93;60.33
73780;SHT30;62093;37.614;15.072;2023-12-14T00:35:32;17.90;60.23
73780;SHT30;62093;37.614;15.072;2023-12-14T00:37:58;17.93;60.33
73780;SHT30;62093;37.614;15.072;2023-12-14T00:40:24;17.95;60.24
73780;SHT30;62093;37.614;15.072;2023-12-14T00:42:50;17.90;60.41
73780;SHT30;62093;37.614;15.072;2023-12-14T00:45:16;17.92;60.39
73780;SHT30;62093;37.614;15.072;2023-12-14T00:47:42;17.89;60.43
73780;SHT30;62093;37.614;15.072;2023-12-14T00:50:09;17.90;60.36
73780;SHT30;62093;37.614;15.072;2023-12-14T00:52:34;17.89;60.29
73780;SHT30;62093;37.614;15.072;2023-12-14T00:55:00;17.89;60.37
73780;SHT30;62093;37.614;15.072;2023-12-14T00:57:26;17.87;60.30
73780;SHT30;62093;37.614;15.072;2023-12-14T00:59:52;17.86;60.25
73780;SHT30;62093;37.614;15.072;2023-12-14T01:02:18;17.85;60.12
73780;SHT30;62093;37.614;15.072;2023-12-14T01:04:44;17.85;60.31
73780;SHT30;62093;37.614;15.072;2023-12-14T01:07:10;17.86;60.30
73780;SHT30;62093;37.614;15.072;2023-12-14T01:09:36;17.85;60.24
73780;SHT30;62093;37.614;15.072;2023-12-14T01:12:02;17.83;60.25
73780;SHT30;62093;37.614;15.072;2023-12-14T01:14:28;17.83;60.14
73780;SHT30;62093;37.614;15.072;2023-12-14T01:16:55;17.85;60.37
73780;SHT30;62093;37.614;15.072;2023-12-14T01:19:21;17.83;60.32
73780;SHT30;62093;37.614;15.072;2023-12-14T01:21:47;17.81;60.25
73780;SHT30;62093;37.614;15.072;2023-12-14T01:24:13;17.81;60.45
73780;SHT30;62093;37.614;15.072;2023-12-14T01:26:40;17.82;60.36
73780;SHT30;62093;37.614;15.072;2023-12-14T01:29:06;17.79;60.35
73780;SHT30;62093;37.614;15.072;2023-12-14T01:31:31;17.79;60.31
73780;SHT30;62093;37.614;15.072;2023-12-14T01:33:57;17.79;60.37
73780;SHT30;62093;37.614;15.072;2023-12-14T01:36:25;17.79;60.37
73780;SHT30;62093;37.614;15.072;2023-12-14T01:38:51;17.79;60.33
73780;SHT30;62093;37.614;15.072;2023-12-14T01:41:18;17.81;60.43
73780;SHT30;62093;37.614;15.072;2023-12-14T01:43:44;17.78;60.40
73780;SHT30;62093;37.614;15.072;2023-12-14T01:46:11;17.78;60.44
73780;SHT30;62093;37.614;15.072;2023-12-14T01:48:38;17.76;60.31
73780;SHT30;62093;37.614;15.072;2023-12-14T01:51:04;17.76;60.31
73780;SHT30;62093;37.614;15.072;2023-12-14T01:53:30;17.75;60.37
73780;SHT30;62093;37.614;15.072;2023-12-14T01:55:56;17.75;60.30
73780;SHT30;62093;37.614;15.072;2023-12-14T01:58:22;17.75;60.31
73780;SHT30;62093;37.614;15.072;2023-12-14T02:03:26;17.75;60.12
73780;SHT30;62093;37.614;15.072;2023-12-14T02:05:52;17.73;60.29
73780;SHT30;62093;37.614;15.072;2023-12-14T02:08:18;17.75;60.29
73780;SHT30;62093;37.614;15.072;2023-12-14T02:10:44;17.73;60.24
73780;SHT30;62093;37.614;15.072;2023-12-14T02:13:10;17.71;60.20
73780;SHT30;62093;37.614;15.072;2023-12-14T02:15:35;17.73;60.23
73780;SHT30;62093;37.614;15.072;2023-12-14T02:18:01;17.75;60.40
73780;SHT30;62093;37.614;15.072;2023-12-14T02:20:27;17.71;60.40
73780;SHT30;62093;37.614;15.072;2023-12-14T02:22:56;17.73;60.30
73780;SHT30;62093;37.614;15.072;2023-12-14T02:25:23;17.71;60.33
73780;SHT30;62093;37.614;15.072;2023-12-14T02:27:50;17.72;60.36
73780;SHT30;62093;37.614;15.072;2023-12-14T02:30:17;17.69;60.55
73780;SHT30;62093;37.614;15.072;2023-12-14T02:32:44;17.69;60.32
73780;SHT30;62093;37.614;15.072;2023-12-14T02:35:10;17.66;60.51
73780;SHT30;62093;37.614;15.072;2023-12-14T02:37:36;17.68;60.57
73780;SHT30;62093;37.614;15.072;2023-12-14T02:40:07;17.69;60.50
73780;SHT30;62093;37.614;15.072;2023-12-14T02:42:33;17.66;60.58
73780;SHT30;62093;37.614;15.072;2023-12-14T02:44:59;17.65;60.61
73780;SHT30;62093;37.614;15.072;2023-12-14T02:47:28;17.66;60.45
73780;SHT30;62093;37.614;15.072;2023-12-14T02:49:54;17.63;60.61
73780;SHT30;62093;37.614;15.072;2023-12-14T02:52:20;17.63;60.54
73780;SHT30;62093;37.614;15.072;2023-12-14T02:54:46;17.66;60.56
73780;SHT30;62093;37.614;15.072;2023-12-14T02:57:12;17.65;60.73
73780;SHT30;62093;37.614;15.072;2023-12-14T02:59:39;17.61;60.57
73780;SHT30;62093;37.614;15.072;2023-12-14T03:02:05;17.62;60.78
73780;SHT30;62093;37.614;15.072;2023-12-14T03:04:31;17.59;60.67
73780;SHT30;62093;37.614;15.072;2023-12-14T03:06:57;17.62;60.77
73780;SHT30;62093;37.614;15.072;2023-12-14T03:09:30;17.59;60.79
73780;SHT30;62093;37.614;15.072;2023-12-14T03:11:56;17.59;60.74
73780;SHT30;62093;37.614;15.072;2023-12-14T03:14:22;17.58;60.85
73780;SHT30;62093;37.614;15.072;2023-12-14T03:16:48;17.59;60.84
73780;SHT30;62093;37.614;15.072;2023-12-14T03:19:15;17.55;60.75
73780;SHT30;62093;37.614;15.072;2023-12-14T03:21:44;17.56;60.84
73780;SHT30;62093;37.614;15.072;2023-12-14T03:24:10;17.55;60.76
73780;SHT30;62093;37.614;15.072;2023-12-14T03:26:36;17.55;60.90
73780;SHT30;62093;37.614;15.072;2023-12-14T03:29:02;17.55;60.90
73780;SHT30;62093;37.614;15.072;2023-12-14T03:31:28;17.55;60.94
73780;SHT30;62093;37.614;15.072;2023-12-14T03:33:54;17.51;60.95
73780;SHT30;62093;37.614;15.072;2023-12-14T03:36:20;17.52;60.99
73780;SHT30;62093;37.614;15.072;2023-12-14T03:38:48;17.51;61.01
73780;SHT30;62093;37.614;15.072;2023-12-14T03:41:14;17.48;61.15
73780;SHT30;62093;37.614;15.072;2023-12-14T03:43:40;17.49;61.05
73780;SHT30;62093;37.614;15.072;2023-12-14T03:46:06;17.48;61.00
73780;SHT30;62093;37.614;15.072;2023-12-14T03:48:32;17.48;61.14
73780;SHT30;62093;37.614;15.072;2023-12-14T03:51:02;17.45;61.12
73780;SHT30;62093;37.614;15.072;2023-12-14T03:53:29;17.45;61.02
73780;SHT30;62093;37.614;15.072;2023-12-14T03:55:55;17.46;61.13
73780;SHT30;62093;37.614;15.072;2023-12-14T03:58:21;17.45;61.10
73780;SHT30;62093;37.614;15.072;2023-12-14T04:00:47;17.44;61.13
73780;SHT30;62093;37.614;15.072;2023-12-14T04:03:13;17.45;61.16
73780;SHT30;62093;37.614;15.072;2023-12-14T04:05:39;17.42;61.10
73780;SHT30;62093;37.614;15.072;2023-12-14T04:08:05;17.41;61.19
73780;SHT30;62093;37.614;15.072;2023-12-14T04:10:31;17.44;61.22
73780;SHT30;62093;37.614;15.072;2023-12-14T04:12:57;17.38;61.25
73780;SHT30;62093;37.614;15.072;2023-12-14T04:15:23;17.39;61.24
73780;SHT30;62093;37.614;15.072;2023-12-14T04:17:49;17.39;61.18
73780;SHT30;62093;37.614;15.072;2023-12-14T04:20:15;17.38;61.18
73780;SHT30;62093;37.614;15.072;2023-12-14T04:22:44;17.41;61.26
73780;SHT30;62093;37.614;15.072;2023-12-14T04:25:10;17.39;61.29
73780;SHT30;62093;37.614;15.072;2023-12-14T04:27:36;17.35;61.27
73780;SHT30;62093;37.614;15.072;2023-12-14T04:30:03;17.32;61.29
73780;SHT30;62093;37.614;15.072;2023-12-14T04:32:30;17.35;61.33
73780;SHT30;62093;37.614;15.072;2023-12-14T04:34:56;17.35;61.38
73780;SHT30;62093;37.614;15.072;2023-12-14T04:37:22;17.35;61.34
73780;SHT30;62093;37.614;15.072;2023-12-14T04:39:48;17.32;61.32
73780;SHT30;62093;37.614;15.072;2023-12-14T04:42:13;17.34;61.38
73780;SHT30;62093;37.614;15.072;2023-12-14T04:44:39;17.34;61.36
73780;SHT30;62093;37.614;15.072;2023-12-14T04:47:05;17.34;61.34
73780;SHT30;62093;37.614;15.072;2023-12-14T04:49:32;17.34;61.39
73780;SHT30;62093;37.614;15.072;2023-12-14T04:51:58;17.34;61.60
73780;SHT30;62093;37.614;15.072;2023-12-14T04:54:24;17.34;61.41
73780;SHT30;62093;37.614;15.072;2023-12-14T04:56:50;17.32;61.48
73780;SHT30;62093;37.614;15.072;2023-12-14T04:59:16;17.34;61.54
73780;SHT30;62093;37.614;15.072;2023-12-14T05:01:42;17.30;61.42
73780;SHT30;62093;37.614;15.072;2023-12-14T05:04:08;17.31;61.51
73780;SHT30;62093;37.614;15.072;2023-12-14T05:06:34;17.32;61.43
73780;SHT30;62093;37.614;15.072;2023-12-14T05:09:00;17.32;61.28
73780;SHT30;62093;37.614;15.072;2023-12-14T05:11:30;17.28;61.25
73780;SHT30;62093;37.614;15.072;2023-12-14T05:13:56;17.28;61.43
73780;SHT30;62093;37.614;15.072;2023-12-14T05:16:23;17.25;61.37
73780;SHT30;62093;37.614;15.072;2023-12-14T05:18:53;17.28;61.42
73780;SHT30;62093;37.614;15.072;2023-12-14T05:21:19;17.27;61.35
73780;SHT30;62093;37.614;15.072;2023-12-14T05:23:45;17.24;61.38
73780;SHT30;62093;37.614;15.072;2023-12-14T05:26:11;17.24;61.42
73780;SHT30;62093;37.614;15.072;2023-12-14T05:28:37;17.23;61.25
73780;SHT30;62093;37.614;15.072;2023-12-14T05:31:03;17.23;61.44
73780;SHT30;62093;37.614;15.072;2023-12-14T05:33:29;17.23;61.43
73780;SHT30;62093;37.614;15.072;2023-12-14T05:35:57;17.24;61.36
73780;SHT30;62093;37.614;15.072;2023-12-14T05:38:23;17.23;61.48
73780;SHT30;62093;37.614;15.072;2023-12-14T05:40:49;17.20;61.49
73780;SHT30;62093;37.614;15.072;2023-12-14T05:43:15;17.20;61.35
73780;SHT30;62093;37.614;15.072;2023-12-14T05:45:41;17.21;61.43
73780;SHT30;62093;37.614;15.072;2023-12-14T05:48:06;17.18;61.35
73780;SHT30;62093;37.614;15.072;2023-12-14T05:50:32;17.18;61.52
73780;SHT30;62093;37.614;15.072;2023-12-14T05:52:58;17.17;61.39
73780;SHT30;62093;37.614;15.072;2023-12-14T05:55:24;17.15;61.55
73780;SHT30;62093;37.614;15.072;2023-12-14T05:57:50;17.15;61.35
73780;SHT30;62093;37.614;15.072;2023-12-14T06:00:18;17.15;61.39
73780;SHT30;62093;37.614;15.072;2023-12-14T06:02:43;17.14;61.46
73780;SHT30;62093;37.614;15.072;2023-12-14T06:05:10;17.13;61.36
73780;SHT30;62093;37.614;15.072;2023-12-14T06:07:36;17.13;61.37
73780;SHT30;62093;37.614;15.072;2023-12-14T06:10:03;17.10;61.58
73780;SHT30;62093;37.614;15.072;2023-12-14T06:12:29;17.13;61.52
73780;SHT30;62093;37.614;15.072;2023-12-14T06:14:55;17.11;61.48
73780;SHT30;62093;37.614;15.072;2023-12-14T06:17:21;17.11;61.53
73780;SHT30;62093;37.614;15.072;2023-12-14T06:19:47;17.10;61.62
73780;SHT30;62093;37.614;15.072;2023-12-14T06:22:13;17.10;61.50
73780;SHT30;62093;37.614;15.072;2023-12-14T06:24:39;17.10;61.55
73780;SHT30;62093;37.614;15.072;2023-12-14T06:27:06;17.10;61.58
73780;SHT30;62093;37.614;15.072;2023-12-14T06:29:31;17.10;61.46
73780;SHT30;62093;37.614;15.072;2023-12-14T06:31:57;17.07;61.43
73780;SHT30;62093;37.614;15.072;2023-12-14T06:34:23;17.06;61.65
73780;SHT30;62093;37.614;15.072;2023-12-14T06:36:49;17.08;61.73
73780;SHT30;62093;37.614;15.072;2023-12-14T06:39:15;17.07;61.67
73780;SHT30;62093;37.614;15.072;2023-12-14T06:41:42;17.08;61.84
73780;SHT30;62093;37.614;15.072;2023-12-14T06:44:07;17.07;61.84
73780;SHT30;62093;37.614;15.072;2023-12-14T06:46:35;17.07;61.67
73780;SHT30;62093;37.614;15.072;2023-12-14T06:49:01;17.07;61.82
73780;SHT30;62093;37.614;15.072;2023-12-14T06:51:27;17.08;61.93
73780;SHT30;62093;37.614;15.072;2023-12-14T06:53:53;17.07;61.88
73780;SHT30;62093;37.614;15.072;2023-12-14T06:56:19;17.08;61.86
73780;SHT30;62093;37.614;15.072;2023-12-14T06:58:46;17.08;61.95
73780;SHT30;62093;37.614;15.072;2023-12-14T07:01:16;17.10;61.97
73780;SHT30;62093;37.614;15.072;2023-12-14T07:03:44;17.08;61.87
73780;SHT30;62093;37.614;15.072;2023-12-14T07:06:17;17.08;61.92
73780;SHT30;62093;37.614;15.072;2023-12-14T07:08:43;17.08;61.98
73780;SHT30;62093;37.614;15.072;2023-12-14T07:11:11;17.08;62.01
73780;SHT30;62093;37.614;15.072;2023-12-14T07:13:37;17.11;61.90
73780;SHT30;62093;37.614;15.072;2023-12-14T07:16:08;17.13;61.94
73780;SHT30;62093;37.614;15.072;2023-12-14T07:18:38;17.13;61.90
73780;SHT30;62093;37.614;15.072;2023-12-14T07:21:05;17.11;61.90
73780;SHT30;62093;37.614;15.072;2023-12-14T07:23:31;17.13;61.93
73780;SHT30;62093;37.614;15.072;2023-12-14T07:25:57;17.15;61.96
73780;SHT30;62093;37.614;15.072;2023-12-14T07:28:23;17.15;61.90
73780;SHT30;62093;37.614;15.072;2023-12-14T07:30:49;17.15;61.93
73780;SHT30;62093;37.614;15.072;2023-12-14T07:33:15;17.15;61.93
73780;SHT30;62093;37.614;15.072;2023-12-14T07:35:41;17.15;61.93
73780;SHT30;62093;37.614;15.072;2023-12-14T07:38:08;17.18;61.98
73780;SHT30;62093;37.614;15.072;2023-12-14T07:40:34;17.20;61.95
73780;SHT30;62093;37.614;15.072;2023-12-14T07:43:00;17.17;61.99
73780;SHT30;62093;37.614;15.072;2023-12-14T07:45:26;17.20;61.96
73780;SHT30;62093;37.614;15.072;2023-12-14T07:47:52;17.20;61.95
73780;SHT30;62093;37.614;15.072;2023-12-14T07:50:18;17.21;61.90
73780;SHT30;62093;37.614;15.072;2023-12-14T07:52:44;17.23;61.80
73780;SHT30;62093;37.614;15.072;2023-12-14T07:55:11;17.21;61.79
73780;SHT30;62093;37.614;15.072;2023-12-14T07:57:39;17.25;61.76
73780;SHT30;62093;37.614;15.072;2023-12-14T08:00:06;17.24;61.77
73780;SHT30;62093;37.614;15.072;2023-12-14T08:02:34;17.25;61.79
73780;SHT30;62093;37.614;15.072;2023-12-14T08:05:00;17.28;61.80
73780;SHT30;62093;37.614;15.072;2023-12-14T08:07:26;17.28;61.91
73780;SHT30;62093;37.614;15.072;2023-12-14T08:09:55;17.31;61.90
73780;SHT30;62093;37.614;15.072;2023-12-14T08:12:22;17.30;61.93
73780;SHT30;62093;37.614;15.072;2023-12-14T08:14:48;17.31;61.86
73780;SHT30;62093;37.614;15.072;2023-12-14T08:17:14;17.31;61.74
73780;SHT30;62093;37.614;15.072;2023-12-14T08:19:40;17.36;61.70
73780;SHT30;62093;37.614;15.072;2023-12-14T08:22:06;17.32;61.67
73780;SHT30;62093;37.614;15.072;2023-12-14T08:24:33;17.35;61.72
73780;SHT30;62093;37.614;15.072;2023-12-14T08:26:59;17.36;61.79
73780;SHT30;62093;37.614;15.072;2023-12-14T08:29:25;17.35;61.76
73780;SHT30;62093;37.614;15.072;2023-12-14T08:31:50;17.38;61.75
73780;SHT30;62093;37.614;15.072;2023-12-14T08:34:16;17.42;61.79
73780;SHT30;62093;37.614;15.072;2023-12-14T08:36:42;17.41;61.76
73780;SHT30;62093;37.614;15.072;2023-12-14T08:39:08;17.42;61.77
73780;SHT30;62093;37.614;15.072;2023-12-14T08:41:34;17.44;61.78
73780;SHT30;62093;37.614;15.072;2023-12-14T08:44:00;17.45;61.66
73780;SHT30;62093;37.614;15.072;2023-12-14T08:46:26;17.42;61.69
73780;SHT30;62093;37.614;15.072;2023-12-14T08:48:52;17.44;61.65
73780;SHT30;62093;37.614;15.072;2023-12-14T08:51:18;17.46;61.64
73780;SHT30;62093;37.614;15.072;2023-12-14T08:53:46;17.49;61.60
73780;SHT30;62093;37.614;15.072;2023-12-14T08:56:12;17.48;61.59
73780;SHT30;62093;37.614;15.072;2023-12-14T08:58:38;17.48;61.59
73780;SHT30;62093;37.614;15.072;2023-12-14T09:01:04;17.51;61.64
73780;SHT30;62093;37.614;15.072;2023-12-14T09:03:30;17.52;61.61
73780;SHT30;62093;37.614;15.072;2023-12-14T09:05:55;17.48;61.64
73780;SHT30;62093;37.614;15.072;2023-12-14T09:08:22;17.51;61.61
73780;SHT30;62093;37.614;15.072;2023-12-14T09:10:47;17.51;61.61
73780;SHT30;62093;37.614;15.072;2023-12-14T09:13:13;17.52;61.62
73780;SHT30;62093;37.614;15.072;2023-12-14T09:15:40;17.54;61.61
73780;SHT30;62093;37.614;15.072;2023-12-14T09:18:06;17.55;61.64
73780;SHT30;62093;37.614;15.072;2023-12-14T09:20:32;17.52;61.64
73780;SHT30;62093;37.614;15.072;2023-12-14T09:22:58;17.55;61.61
73780;SHT30;62093;37.614;15.072;2023-12-14T09:25:24;17.55;61.55
73780;SHT30;62093;37.614;15.072;2023-12-14T09:27:50;17.51;61.64
73780;SHT30;62093;37.614;15.072;2023-12-14T09:30:16;17.56;61.62
73780;SHT30;62093;37.614;15.072;2023-12-14T09:32:43;17.56;61.64
73780;SHT30;62093;37.614;15.072;2023-12-14T09:35:09;17.58;61.58
73780;SHT30;62093;37.614;15.072;2023-12-14T09:37:35;17.58;61.59
73780;SHT30;62093;37.614;15.072;2023-12-14T09:40:01;17.58;61.64
73780;SHT30;62093;37.614;15.072;2023-12-14T09:42:28;17.56;61.59
73780;SHT30;62093;37.614;15.072;2023-12-14T09:44:55;17.58;61.59
73780;SHT30;62093;37.614;15.072;2023-12-14T09:47:21;17.58;61.62
73780;SHT30;62093;37.614;15.072;2023-12-14T09:49:47;17.58;61.59
73780;SHT30;62093;37.614;15.072;2023-12-14T09:52:15;17.58;61.60
73780;SHT30;62093;37.614;15.072;2023-12-14T09:54:40;17.61;61.61
73780;SHT30;62093;37.614;15.072;2023-12-14T09:57:06;17.61;61.61
73780;SHT30;62093;37.614;15.072;2023-12-14T09:59:33;17.62;61.57
73780;SHT30;62093;37.614;15.072;2023-12-14T10:02:12;17.61;61.55
73780;SHT30;62093;37.614;15.072;2023-12-14T10:04:38;17.61;61.54
73780;SHT30;62093;37.614;15.072;2023-12-14T10:07:04;17.63;61.52
73780;SHT30;62093;37.614;15.072;2023-12-14T10:09:34;17.63;61.52
73780;SHT30;62093;37.614;15.072;2023-12-14T10:14:31;17.63;61.53
73780;SHT30;62093;37.614;15.072;2023-12-14T10:16:58;17.66;61.52
73780;SHT30;62093;37.614;15.072;2023-12-14T10:19:24;17.65;61.52
73780;SHT30;62093;37.614;15.072;2023-12-14T10:21:50;17.65;61.48
73780;SHT30;62093;37.614;15.072;2023-12-14T10:24:17;17.68;61.45
73780;SHT30;62093;37.614;15.072;2023-12-14T10:26:46;17.66;61.44
73780;SHT30;62093;37.614;15.072;2023-12-14T10:29:12;17.68;61.47
73780;SHT30;62093;37.614;15.072;2023-12-14T10:31:39;17.68;61.47
73780;SHT30;62093;37.614;15.072;2023-12-14T10:34:05;17.68;61.45
73780;SHT30;62093;37.614;15.072;2023-12-14T10:36:32;17.71;61.44
73780;SHT30;62093;37.614;15.072;2023-12-14T10:38:59;17.71;61.43
73780;SHT30;62093;37.614;15.072;2023-12-14T10:41:26;17.69;61.38
73780;SHT30;62093;37.614;15.072;2023-12-14T10:43:56;17.72;61.41
73780;SHT30;62093;37.614;15.072;2023-12-14T10:46:23;17.71;61.38
73780;SHT30;62093;37.614;15.072;2023-12-14T10:48:50;17.72;61.42
73780;SHT30;62093;37.614;15.072;2023-12-14T10:51:21;17.73;61.38
73780;SHT30;62093;37.614;15.072;2023-12-14T10:53:48;17.75;61.37
73780;SHT30;62093;37.614;15.072;2023-12-14T10:56:16;17.75;61.34
73780;SHT30;62093;37.614;15.072;2023-12-14T10:58:53;17.75;61.33
73780;SHT30;62093;37.614;15.072;2023-12-14T11:01:21;17.76;61.30
73780;SHT30;62093;37.614;15.072;2023-12-14T11:03:50;17.76;61.31
73780;SHT30;62093;37.614;15.072;2023-12-14T11:06:32;17.76;61.31
73780;SHT30;62093;37.614;15.072;2023-12-14T11:09:01;17.82;61.32
73780;SHT30;62093;37.614;15.072;2023-12-14T11:14:16;17.76;61.29
73780;SHT30;62093;37.614;15.072;2023-12-14T11:16:44;17.81;61.25
73780;SHT30;62093;37.614;15.072;2023-12-14T11:24:21;17.82;61.21
73780;SHT30;62093;37.614;15.072;2023-12-14T11:26:50;17.83;61.19
73780;SHT30;62093;37.614;15.072;2023-12-14T11:29:19;17.85;61.18
73780;SHT30;62093;37.614;15.072;2023-12-14T11:31:47;17.83;61.13
73780;SHT30;62093;37.614;15.072;2023-12-14T11:34:16;17.85;61.13
73780;SHT30;62093;37.614;15.072;2023-12-14T11:36:43;17.86;61.07
73780;SHT30;62093;37.614;15.072;2023-12-14T11:39:11;17.86;61.08
73780;SHT30;62093;37.614;15.072;2023-12-14T11:41:37;17.86;61.07
73780;SHT30;62093;37.614;15.072;2023-12-14T11:44:04;17.89;61.05
73780;SHT30;62093;37.614;15.072;2023-12-14T11:46:31;17.89;61.04
73780;SHT30;62093;37.614;15.072;2023-12-14T11:48:58;17.89;60.99
73780;SHT30;62093;37.614;15.072;2023-12-14T11:51:24;17.89;61.01
73780;SHT30;62093;37.614;15.072;2023-12-14T11:53:55;17.92;60.95
73780;SHT30;62093;37.614;15.072;2023-12-14T11:56:21;17.92;60.95
73780;SHT30;62093;37.614;15.072;2023-12-14T11:58:51;17.95;60.91
73780;SHT30;62093;37.614;15.072;2023-12-14T12:01:18;17.92;60.84
73780;SHT30;62093;37.614;15.072;2023-12-14T12:03:45;17.93;60.87
73780;SHT30;62093;37.614;15.072;2023-12-14T12:06:22;17.93;60.83
73780;SHT30;62093;37.614;15.072;2023-12-14T12:08:48;17.95;60.81
73780;SHT30;62093;37.614;15.072;2023-12-14T12:11:18;17.96;60.83
73780;SHT30;62093;37.614;15.072;2023-12-14T12:13:44;17.95;60.84
73780;SHT30;62093;37.614;15.072;2023-12-14T12:16:15;17.97;60.82
73780;SHT30;62093;37.614;15.072;2023-12-14T12:18:41;17.97;60.80
73780;SHT30;62093;37.614;15.072;2023-12-14T12:21:07;17.99;60.80
73780;SHT30;62093;37.614;15.072;2023-12-14T12:23:35;17.96;60.80
73780;SHT30;62093;37.614;15.072;2023-12-14T12:26:01;17.99;60.80
73780;SHT30;62093;37.614;15.072;2023-12-14T12:28:27;17.97;60.77
73780;SHT30;62093;37.614;15.072;2023-12-14T12:30:53;17.99;60.78
73780;SHT30;62093;37.614;15.072;2023-12-14T12:33:19;17.99;60.75
73780;SHT30;62093;37.614;15.072;2023-12-14T12:35:46;18.00;60.76
73780;SHT30;62093;37.614;15.072;2023-12-14T12:38:12;18.00;60.70
73780;SHT30;62093;37.614;15.072;2023-12-14T12:40:38;18.02;60.75
73780;SHT30;62093;37.614;15.072;2023-12-14T12:43:04;17.99;60.76
73780;SHT30;62093;37.614;15.072;2023-12-14T12:45:30;18.02;60.78
73780;SHT30;62093;37.614;15.072;2023-12-14T12:47:58;17.99;60.75
73780;SHT30;62093;37.614;15.072;2023-12-14T12:50:24;18.00;60.77
73780;SHT30;62093;37.614;15.072;2023-12-14T12:52:50;18.00;60.76
73780;SHT30;62093;37.614;15.072;2023-12-14T12:55:16;18.02;60.73
73780;SHT30;62093;37.614;15.072;2023-12-14T12:57:43;18.00;60.75
73780;SHT30;62093;37.614;15.072;2023-12-14T13:00:09;17.99;60.78
73780;SHT30;62093;37.614;15.072;2023-12-14T13:02:42;17.99;60.77
73780;SHT30;62093;37.614;15.072;2023-12-14T13:05:09;18.02;60.78
73780;SHT30;62093;37.614;15.072;2023-12-14T13:07:36;18.00;60.81
73780;SHT30;62093;37.614;15.072;2023-12-14T13:10:04;18.00;60.80
73780;SHT30;62093;37.614;15.072;2023-12-14T13:12:32;18.03;60.76
73780;SHT30;62093;37.614;15.072;2023-12-14T13:14:59;18.00;60.79
73780;SHT30;62093;37.614;15.072;2023-12-14T13:17:25;17.97;60.78
73780;SHT30;62093;37.614;15.072;2023-12-14T13:19:51;18.00;60.79
73780;SHT30;62093;37.614;15.072;2023-12-14T13:22:18;17.99;60.78
73780;SHT30;62093;37.614;15.072;2023-12-14T13:24:45;18.00;60.81
73780;SHT30;62093;37.614;15.072;2023-12-14T13:27:11;17.99;60.78
73780;SHT30;62093;37.614;15.072;2023-12-14T13:29:37;18.00;60.78
73780;SHT30;62093;37.614;15.072;2023-12-14T13:32:03;17.99;60.81
73780;SHT30;62093;37.614;15.072;2023-12-14T13:34:30;17.97;60.79
73780;SHT30;62093;37.614;15.072;2023-12-14T13:36:56;18.00;60.78
73780;SHT30;62093;37.614;15.072;2023-12-14T13:39:23;17.99;60.78
73780;SHT30;62093;37.614;15.072;2023-12-14T13:41:49;17.97;60.76
73780;SHT30;62093;37.614;15.072;2023-12-14T13:44:15;17.97;60.77
73780;SHT30;62093;37.614;15.072;2023-12-14T13:46:41;17.99;60.74
73780;SHT30;62093;37.614;15.072;2023-12-14T13:49:07;17.99;60.73
73780;SHT30;62093;37.614;15.072;2023-12-14T13:51:32;17.99;60.71
73780;SHT30;62093;37.614;15.072;2023-12-14T13:53:59;18.00;60.70
73780;SHT30;62093;37.614;15.072;2023-12-14T13:56:25;18.02;60.71
73780;SHT30;62093;37.614;15.072;2023-12-14T13:58:51;18.00;60.70
73780;SHT30;62093;37.614;15.072;2023-12-14T14:01:17;18.00;60.69
73780;SHT30;62093;37.614;15.072;2023-12-14T14:03:44;18.03;60.68
73780;SHT30;62093;37.614;15.072;2023-12-14T14:06:13;18.02;60.68
73780;SHT30;62093;37.614;15.072;2023-12-14T14:08:39;18.03;60.69
73780;SHT30;62093;37.614;15.072;2023-12-14T14:11:05;18.03;60.64
73780;SHT30;62093;37.614;15.072;2023-12-14T14:13:31;18.02;60.70
73780;SHT30;62093;37.614;15.072;2023-12-14T14:15:58;18.02;60.64
73780;SHT30;62093;37.614;15.072;2023-12-14T14:18:24;18.06;60.65
73780;SHT30;62093;37.614;15.072;2023-12-14T14:20:50;18.04;60.59
73780;SHT30;62093;37.614;15.072;2023-12-14T14:23:16;18.03;60.58
73780;SHT30;62093;37.614;15.072;2023-12-14T14:25:42;18.04;60.62
73780;SHT30;62093;37.614;15.072;2023-12-14T14:28:08;18.02;60.58
73780;SHT30;62093;37.614;15.072;2023-12-14T14:30:34;18.04;60.62
73780;SHT30;62093;37.614;15.072;2023-12-14T14:33:01;18.03;60.61
73780;SHT30;62093;37.614;15.072;2023-12-14T14:35:27;18.03;60.51
73780;SHT30;62093;37.614;15.072;2023-12-14T14:37:54;18.03;60.57
73780;SHT30;62093;37.614;15.072;2023-12-14T14:40:20;18.02;60.57
73780;SHT30;62093;37.614;15.072;2023-12-14T14:42:47;18.02;60.55
73780;SHT30;62093;37.614;15.072;2023-12-14T14:45:13;18.04;60.53
73780;SHT30;62093;37.614;15.072;2023-12-14T14:47:41;18.04;60.55
73780;SHT30;62093;37.614;15.072;2023-12-14T14:50:10;18.04;60.58
73780;SHT30;62093;37.614;15.072;2023-12-14T14:52:36;18.02;60.60
73780;SHT30;62093;37.614;15.072;2023-12-14T14:55:02;18.02;60.64
73780;SHT30;62093;37.614;15.072;2023-12-14T14:57:28;18.03;60.68
73780;SHT30;62093;37.614;15.072;2023-12-14T14:59:54;18.04;60.67
73780;SHT30;62093;37.614;15.072;2023-12-14T15:02:20;18.02;60.74
73780;SHT30;62093;37.614;15.072;2023-12-14T15:04:46;18.00;60.79
73780;SHT30;62093;37.614;15.072;2023-12-14T15:07:12;18.02;60.79
73780;SHT30;62093;37.614;15.072;2023-12-14T15:09:38;18.00;60.85
73780;SHT30;62093;37.614;15.072;2023-12-14T15:12:04;17.99;60.87
73780;SHT30;62093;37.614;15.072;2023-12-14T15:14:30;17.99;60.87
73780;SHT30;62093;37.614;15.072;2023-12-14T15:16:56;18.00;60.88
73780;SHT30;62093;37.614;15.072;2023-12-14T15:19:23;18.00;60.84
73780;SHT30;62093;37.614;15.072;2023-12-14T15:21:49;17.97;60.82
73780;SHT30;62093;37.614;15.072;2023-12-14T15:24:15;17.96;60.83